createdAt,value
2023-03-21T00:00:28.812Z,4.84
2023-03-21T00:02:55.427Z,4.80
2023-03-21T00:05:22.139Z,4.71
2023-03-21T00:07:48.615Z,4.65
2023-03-21T00:10:19.623Z,4.48
2023-03-21T00:12:55.348Z,4.38
2023-03-21T00:15:24.910Z,4.28
2023-03-21T00:18:11.274Z,4.28
2023-03-21T00:20:39.078Z,4.34
2023-03-21T00:23:05.754Z,4.33
2023-03-21T00:25:32.902Z,4.24
2023-03-21T00:28:07.984Z,4.16
2023-03-21T00:30:35.053Z,4.11
2023-03-21T00:33:05.954Z,4.11
2023-03-21T00:36:06.322Z,4.06
2023-03-21T00:38:26.304Z,3.95
2023-03-21T00:40:53.523Z,3.89
2023-03-21T00:43:23.283Z,3.88
2023-03-21T00:45:51.350Z,3.89
2023-03-21T00:48:18.703Z,3.90
2023-03-21T00:50:49.854Z,3.96
2023-03-21T00:53:16.392Z,3.89
2023-03-21T00:55:42.888Z,3.80
2023-03-21T00:58:09.445Z,3.84
2023-03-21T01:00:39.230Z,3.76
2023-03-21T01:03:23.173Z,3.71
2023-03-21T01:06:06.751Z,3.70
2023-03-21T01:08:50.713Z,3.68
2023-03-21T01:11:22.560Z,3.62
2023-03-21T01:14:20.810Z,3.56
2023-03-21T01:16:37.033Z,3.50
2023-03-21T01:19:09.171Z,3.45
2023-03-21T01:21:38.684Z,3.45
2023-03-21T01:24:05.796Z,3.42
2023-03-21T01:26:32.661Z,3.42
2023-03-21T01:28:59.171Z,3.35
2023-03-21T01:31:26.036Z,3.33
2023-03-21T01:33:52.597Z,3.32
2023-03-21T01:36:25.863Z,3.20
2023-03-21T01:38:57.087Z,3.16
2023-03-21T01:41:41.988Z,3.12
2023-03-21T01:44:18.964Z,3.12
2023-03-21T01:47:07.335Z,3.13
2023-03-21T01:50:03.858Z,3.07
2023-03-21T01:52:49.841Z,3.05
2023-03-21T01:55:23.429Z,3.03
2023-03-21T01:58:05.776Z,3.02
2023-03-21T02:00:56.754Z,2.98
2023-03-21T02:03:38.063Z,2.95
2023-03-21T02:06:31.687Z,2.87
2023-03-21T02:09:09.978Z,2.84
2023-03-21T02:11:37.948Z,2.81
2023-03-21T02:14:06.978Z,2.87
2023-03-21T02:17:14.645Z,2.84
2023-03-21T02:20:01.770Z,2.80
2023-03-21T02:23:00.509Z,2.79
2023-03-21T02:25:46.432Z,2.68
2023-03-21T02:28:33.764Z,2.63
2023-03-21T02:31:26.782Z,2.58
2023-03-21T02:34:00.841Z,2.52
2023-03-21T02:37:01.588Z,2.51
2023-03-21T02:39:51.793Z,2.53
2023-03-21T02:42:59.393Z,2.61
2023-03-21T02:45:40.181Z,2.55
2023-03-21T02:48:25.470Z,2.54
2023-03-21T02:50:59.773Z,2.53
2023-03-21T02:53:31.726Z,2.50
2023-03-21T02:56:00.442Z,2.53
2023-03-21T02:58:30.720Z,2.51
2023-03-21T03:00:58.508Z,2.47
2023-03-21T03:03:37.054Z,2.43
2023-03-21T03:06:20.655Z,2.43
2023-03-21T03:09:30.741Z,2.47
2023-03-21T03:12:14.588Z,2.42
2023-03-21T03:15:06.868Z,2.40
2023-03-21T03:17:59.843Z,2.42
2023-03-21T03:20:47.711Z,2.43
2023-03-21T03:23:26.317Z,2.41
2023-03-21T03:26:08.491Z,2.40
2023-03-21T03:28:44.809Z,2.36
2023-03-21T03:31:21.804Z,2.32
2023-03-21T03:33:55.853Z,2.29
2023-03-21T03:36:32.603Z,2.27
2023-03-21T03:39:09.004Z,2.31
2023-03-21T03:42:18.491Z,2.30
2023-03-21T03:44:41.910Z,2.28
2023-03-21T03:47:22.874Z,2.22
2023-03-21T03:50:13.998Z,2.18
2023-03-21T03:52:56.096Z,2.12
2023-03-21T03:55:28.185Z,2.14
2023-03-21T03:57:58.981Z,2.10
2023-03-21T04:00:27.127Z,2.05
2023-03-21T04:02:54.078Z,2.03
2023-03-21T04:05:24.389Z,1.98
2023-03-21T04:07:51.236Z,2.01
2023-03-21T04:10:22.712Z,2.04
2023-03-21T04:12:49.978Z,2.01
2023-03-21T04:15:25.191Z,2.00
2023-03-21T04:17:59.742Z,1.92
2023-03-21T04:20:36.152Z,1.85
2023-03-21T04:23:09.937Z,1.85
2023-03-21T04:25:44.729Z,1.81
2023-03-21T04:28:17.307Z,1.79
2023-03-21T04:31:02.236Z,1.78
2023-03-21T04:33:38.382Z,1.75
2023-03-21T04:36:07.002Z,1.76
2023-03-21T04:38:33.936Z,1.83
2023-03-21T04:41:03.753Z,1.81
2023-03-21T04:43:30.939Z,1.82
2023-03-21T04:45:57.847Z,1.82
2023-03-21T04:48:24.662Z,1.67
2023-03-21T04:50:52.034Z,1.64
2023-03-21T04:53:18.459Z,1.69
2023-03-21T04:55:45.245Z,1.70
2023-03-21T04:58:11.961Z,1.59
2023-03-21T05:00:39.037Z,1.54
2023-03-21T05:03:08.998Z,1.54
2023-03-21T05:05:37.927Z,1.54
2023-03-21T05:08:06.090Z,1.49
2023-03-21T05:13:00.498Z,1.52
2023-03-21T05:15:27.915Z,1.55
2023-03-21T05:17:54.540Z,1.55
2023-03-21T05:20:21.325Z,1.55
2023-03-21T05:22:51.440Z,1.53
2023-03-21T05:25:35.077Z,1.55
2023-03-21T05:28:18.196Z,1.62
2023-03-21T05:30:46.692Z,1.61
2023-03-21T05:33:13.745Z,1.64
2023-03-21T05:35:40.954Z,1.67
2023-03-21T05:38:10.096Z,1.67
2023-03-21T05:40:50.920Z,1.62
2023-03-21T05:43:17.948Z,1.62
2023-03-21T05:45:44.923Z,1.62
2023-03-21T05:48:11.399Z,1.64
2023-03-21T05:50:54.508Z,1.66
2023-03-21T05:53:23.310Z,1.69
2023-03-21T05:55:50.039Z,1.68
2023-03-21T05:58:34.052Z,1.68
2023-03-21T06:01:00.571Z,1.69
2023-03-21T06:03:31.810Z,1.73
2023-03-21T06:06:14.635Z,1.78
2023-03-21T06:08:51.020Z,1.87
2023-03-21T06:11:28.688Z,1.87
2023-03-21T06:14:13.400Z,1.89
2023-03-21T06:16:40.870Z,1.92
2023-03-21T06:19:07.539Z,1.98
2023-03-21T06:21:45.884Z,2.06
2023-03-21T06:24:12.333Z,2.09
2023-03-21T06:26:42.355Z,2.13
2023-03-21T06:29:09.456Z,2.15
2023-03-21T06:31:36.126Z,2.24
2023-03-21T06:34:04.637Z,2.30
2023-03-21T06:36:32.069Z,2.40
2023-03-21T06:38:58.745Z,2.45
2023-03-21T06:41:25.684Z,2.51
2023-03-21T06:44:02.734Z,2.61
2023-03-21T06:46:33.487Z,2.67
2023-03-21T06:48:59.968Z,2.79
2023-03-21T06:51:29.226Z,2.90
2023-03-21T06:54:05.512Z,3.02
2023-03-21T06:56:47.593Z,3.18
2023-03-21T06:59:21.546Z,3.26
2023-03-21T07:01:55.272Z,3.37
2023-03-21T07:04:21.767Z,3.42
2023-03-21T07:06:49.528Z,3.51
2023-03-21T07:09:18.160Z,3.65
2023-03-21T07:11:45.483Z,3.76
2023-03-21T07:14:11.928Z,3.93
2023-03-21T07:16:38.459Z,4.09
2023-03-21T07:19:05.047Z,4.25
2023-03-21T07:21:32.301Z,4.37
2023-03-21T07:24:00.377Z,4.50
2023-03-21T07:26:26.921Z,4.65
2023-03-21T07:28:53.515Z,4.77
2023-03-21T07:31:20.958Z,4.95
2023-03-21T07:33:48.226Z,5.16
2023-03-21T07:36:16.223Z,5.32
2023-03-21T07:38:43.918Z,5.49
2023-03-21T07:41:10.659Z,5.68
2023-03-21T07:43:39.179Z,5.87
2023-03-21T07:46:09.499Z,6.04
2023-03-21T07:48:37.178Z,6.26
2023-03-21T07:51:04.025Z,6.43
2023-03-21T07:53:30.558Z,6.59
2023-03-21T07:55:57.055Z,6.73
2023-03-21T07:58:24.776Z,6.85
2023-03-21T08:00:51.959Z,6.96
2023-03-21T08:03:18.915Z,7.10
2023-03-21T08:05:46.235Z,7.23
2023-03-21T08:08:13.140Z,7.37
2023-03-21T08:10:39.870Z,7.47
2023-03-21T08:13:06.368Z,7.63
2023-03-21T08:15:32.978Z,7.78
2023-03-21T08:18:00.600Z,7.92
2023-03-21T08:20:28.032Z,8.06
2023-03-21T08:22:54.661Z,8.23
2023-03-21T08:25:22.590Z,8.41
2023-03-21T08:27:50.312Z,8.64
2023-03-21T08:30:19.663Z,8.76
2023-03-21T08:32:46.300Z,8.97
2023-03-21T08:35:15.870Z,9.17
2023-03-21T08:37:43.058Z,9.36
2023-03-21T08:40:13.273Z,9.54
2023-03-21T08:42:43.825Z,9.66
2023-03-21T08:45:12.058Z,9.80
2023-03-21T08:47:38.846Z,9.92
2023-03-21T08:50:07.699Z,10.01
2023-03-21T08:52:34.612Z,10.22
2023-03-21T08:55:02.264Z,10.34
2023-03-21T08:57:29.554Z,10.38
2023-03-21T08:59:56.178Z,10.47
2023-03-21T09:02:23.009Z,10.65
2023-03-21T09:04:49.800Z,10.74
2023-03-21T09:07:17.061Z,10.82
2023-03-21T09:09:43.763Z,10.98
2023-03-21T09:12:11.341Z,11.00
2023-03-21T09:14:37.810Z,11.08
2023-03-21T09:17:04.243Z,11.20
2023-03-21T09:19:31.862Z,11.33
2023-03-21T09:21:58.692Z,11.36
2023-03-21T09:24:26.386Z,11.49
2023-03-21T09:26:52.938Z,11.56
2023-03-21T09:29:21.337Z,11.63
2023-03-21T09:31:47.894Z,11.69
2023-03-21T09:34:15.656Z,11.74
2023-03-21T09:36:44.222Z,11.83
2023-03-21T09:39:11.957Z,11.92
2023-03-21T09:41:56.595Z,12.09
2023-03-21T09:44:45.007Z,12.07
2023-03-21T09:47:20.566Z,12.12
2023-03-21T09:49:56.595Z,12.17
2023-03-21T09:52:32.680Z,12.22
2023-03-21T09:54:59.711Z,12.29
2023-03-21T09:57:39.985Z,12.37
2023-03-21T10:00:20.523Z,12.44
2023-03-21T10:02:56.958Z,12.51
2023-03-21T10:05:30.124Z,12.64
2023-03-21T10:08:13.212Z,12.64
2023-03-21T10:10:48.023Z,12.67
2023-03-21T10:13:22.534Z,12.68
2023-03-21T10:15:49.233Z,12.79
2023-03-21T10:18:26.750Z,12.87
2023-03-21T10:20:54.592Z,13.13
2023-03-21T10:23:25.597Z,13.11
2023-03-21T10:26:02.005Z,13.24
2023-03-21T10:28:42.329Z,13.48
2023-03-21T10:31:21.094Z,13.64
2023-03-21T10:33:50.234Z,13.76
2023-03-21T10:36:30.081Z,13.89
2023-03-21T10:39:04.971Z,13.96
2023-03-21T10:41:32.999Z,14.07
2023-03-21T10:44:09.580Z,14.20
2023-03-21T10:46:36.518Z,14.19
2023-03-21T10:49:06.983Z,14.26
2023-03-21T10:51:36.669Z,14.27
2023-03-21T10:54:12.189Z,14.32
2023-03-21T10:56:43.601Z,14.40
2023-03-21T10:59:20.441Z,14.53
2023-03-21T11:01:51.555Z,14.61
2023-03-21T11:04:26.621Z,14.71
2023-03-21T11:06:57.586Z,14.83
2023-03-21T11:09:26.625Z,14.91
2023-03-21T11:12:01.913Z,15.01
2023-03-21T11:14:49.776Z,15.35
2023-03-21T11:17:19.232Z,15.40
2023-03-21T11:19:51.882Z,15.47
2023-03-21T11:22:21.325Z,15.53
2023-03-21T11:24:52.509Z,15.48
2023-03-21T11:27:19.482Z,15.47
2023-03-21T11:29:49.402Z,15.46
2023-03-21T11:32:35.826Z,15.55
2023-03-21T11:35:06.721Z,15.64
2023-03-21T11:37:47.067Z,15.63
2023-03-21T11:40:13.460Z,15.61
2023-03-21T11:42:44.272Z,15.64
2023-03-21T11:45:17.764Z,15.74
2023-03-21T11:47:45.870Z,15.96
2023-03-21T11:50:33.790Z,16.39
2023-03-21T11:53:15.598Z,16.50
2023-03-21T11:55:58.251Z,16.73
2023-03-21T11:58:44.114Z,16.93
2023-03-21T12:01:41.968Z,16.97
2023-03-21T12:04:28.999Z,16.95
2023-03-21T12:07:16.265Z,16.96
2023-03-21T12:09:47.629Z,16.87
2023-03-21T12:12:36.544Z,17.03
2023-03-21T12:15:24.249Z,17.24
2023-03-21T12:18:14.650Z,17.08
2023-03-21T12:20:56.070Z,17.59
2023-03-21T12:23:57.934Z,17.49
2023-03-21T12:27:01.936Z,17.23
2023-03-21T12:29:49.820Z,16.69
2023-03-21T12:32:25.687Z,16.88
2023-03-21T12:34:54.810Z,17.10
2023-03-21T12:37:41.604Z,17.07
2023-03-21T12:40:44.489Z,17.55
2023-03-21T12:43:24.712Z,17.53
2023-03-21T12:45:56.279Z,17.72
2023-03-21T12:48:28.193Z,17.94
2023-03-21T12:50:57.492Z,17.90
2023-03-21T12:53:39.400Z,18.02
2023-03-21T12:56:11.841Z,17.90
2023-03-21T12:58:49.220Z,17.90
2023-03-21T13:01:19.518Z,17.37
2023-03-21T13:03:59.263Z,16.90
2023-03-21T13:06:27.792Z,16.77
2023-03-21T13:09:08.362Z,16.66
2023-03-21T13:11:35.474Z,16.48
2023-03-21T13:14:05.888Z,16.39
2023-03-21T13:16:41.001Z,16.15
2023-03-21T13:19:18.520Z,16.44
2023-03-21T13:21:44.911Z,16.64
2023-03-21T13:24:18.831Z,16.46
2023-03-21T13:27:00.651Z,16.57
2023-03-21T13:29:32.170Z,17.28
2023-03-21T13:32:16.924Z,17.08
2023-03-21T13:34:44.619Z,17.28
2023-03-21T13:37:17.465Z,17.14
2023-03-21T13:39:46.633Z,17.40
2023-03-21T13:42:21.955Z,17.80
2023-03-21T13:44:53.656Z,17.73
2023-03-21T13:47:28.534Z,17.85
2023-03-21T13:50:19.869Z,17.91
2023-03-21T13:53:19.275Z,17.86
2023-03-21T13:55:57.332Z,18.49
2023-03-21T13:58:45.761Z,18.27
2023-03-21T14:01:27.538Z,17.90
2023-03-21T14:04:15.490Z,17.69
2023-03-21T14:07:13.511Z,17.38
2023-03-21T14:09:48.566Z,17.25
2023-03-21T14:12:18.871Z,17.00
2023-03-21T14:15:29.830Z,16.72
2023-03-21T14:17:59.432Z,16.62
2023-03-21T14:20:29.204Z,16.77
2023-03-21T14:22:56.137Z,16.44
2023-03-21T14:25:29.253Z,16.49
2023-03-21T14:28:01.226Z,16.85
2023-03-21T14:30:33.641Z,17.03
2023-03-21T14:33:18.570Z,17.50
2023-03-21T14:35:47.047Z,17.74
2023-03-21T14:38:26.353Z,18.69
2023-03-21T14:40:55.245Z,18.92
2023-03-21T14:43:23.780Z,18.72
2023-03-21T14:45:53.076Z,18.48
2023-03-21T14:48:19.938Z,18.47
2023-03-21T14:50:53.944Z,18.35
2023-03-21T14:53:25.271Z,18.07
2023-03-21T14:56:03.396Z,17.46
2023-03-21T14:58:31.156Z,16.92
2023-03-21T15:01:03.578Z,16.82
2023-03-21T15:03:31.083Z,16.60
2023-03-21T15:05:59.005Z,16.16
2023-03-21T15:08:27.770Z,16.04
2023-03-21T15:11:07.904Z,15.74
2023-03-21T15:13:40.414Z,15.71
2023-03-21T15:16:07.712Z,15.64
2023-03-21T15:18:38.010Z,15.87
2023-03-21T15:21:30.148Z,15.95
2023-03-21T15:24:05.060Z,15.94
2023-03-21T15:26:31.857Z,15.79
2023-03-21T15:28:59.755Z,15.93
2023-03-21T15:31:34.053Z,16.09
2023-03-21T15:34:01.714Z,16.16
2023-03-21T15:36:33.568Z,16.34
2023-03-21T15:39:14.267Z,16.24
2023-03-21T15:41:43.006Z,15.88
2023-03-21T15:44:10.105Z,15.82
2023-03-21T15:46:44.787Z,15.88
2023-03-21T15:49:21.134Z,16.07
2023-03-21T15:51:54.006Z,15.98
2023-03-21T15:54:27.134Z,15.92
2023-03-21T15:57:04.369Z,15.86
2023-03-21T15:59:35.482Z,15.97
2023-03-21T16:02:03.590Z,15.76
2023-03-21T16:04:31.332Z,15.61
2023-03-21T16:07:04.089Z,15.48
2023-03-21T16:09:42.957Z,15.52
2023-03-21T16:12:15.690Z,15.52
2023-03-21T16:14:42.944Z,15.45
2023-03-21T16:17:33.653Z,14.95
2023-03-21T16:20:00.923Z,14.81
2023-03-21T16:22:28.879Z,14.66
2023-03-21T16:24:55.576Z,14.54
2023-03-21T16:27:22.104Z,14.43
2023-03-21T16:29:48.621Z,14.37
2023-03-21T16:32:17.363Z,14.14
2023-03-21T16:34:44.480Z,13.98
2023-03-21T16:37:11.998Z,13.88
2023-03-21T16:39:38.650Z,13.91
2023-03-21T16:42:05.678Z,13.65
2023-03-21T16:44:33.693Z,13.67
2023-03-21T16:47:02.363Z,13.58
2023-03-21T16:49:28.986Z,13.51
2023-03-21T16:51:57.305Z,13.58
2023-03-21T16:54:24.289Z,13.63
2023-03-21T16:56:53.574Z,13.54
2023-03-21T16:59:20.621Z,13.48
2023-03-21T17:01:48.496Z,13.50
2023-03-21T17:04:16.788Z,13.37
2023-03-21T17:06:49.294Z,13.13
2023-03-21T17:09:17.885Z,13.04
2023-03-21T17:11:44.975Z,12.98
2023-03-21T17:14:13.821Z,12.93
2023-03-21T17:16:42.791Z,12.97
2023-03-21T17:19:27.934Z,13.06
2023-03-21T17:21:55.300Z,13.04
2023-03-21T17:24:23.542Z,13.04
2023-03-21T17:26:50.100Z,13.03
2023-03-21T17:29:16.539Z,12.98
2023-03-21T17:31:47.235Z,12.98
2023-03-21T17:34:14.266Z,12.95
2023-03-21T17:36:42.270Z,12.89
2023-03-21T17:39:14.995Z,12.92
2023-03-21T17:41:41.481Z,12.89
2023-03-21T17:44:08.132Z,12.80
2023-03-21T17:46:39.326Z,12.77
2023-03-21T17:49:06.569Z,12.76
2023-03-21T17:51:33.170Z,12.69
2023-03-21T17:54:00.013Z,12.59
2023-03-21T17:56:29.864Z,12.48
2023-03-21T17:58:58.513Z,12.23
2023-03-21T18:01:25.159Z,12.11
2023-03-21T18:03:51.737Z,12.20
2023-03-21T18:06:20.753Z,12.15
2023-03-21T18:08:48.903Z,12.17
2023-03-21T18:11:16.953Z,12.25
2023-03-21T18:13:44.110Z,12.26
2023-03-21T18:16:15.077Z,12.22
2023-03-21T18:18:41.631Z,12.20
2023-03-21T18:21:10.690Z,12.17
2023-03-21T18:23:38.407Z,12.08
2023-03-21T18:26:06.517Z,12.06
2023-03-21T18:28:33.537Z,12.11
2023-03-21T18:31:10.537Z,12.04
2023-03-21T18:33:40.986Z,12.01
2023-03-21T18:36:09.545Z,11.92
2023-03-21T18:38:36.939Z,11.75
2023-03-21T18:41:04.241Z,11.75
2023-03-21T18:46:17.868Z,11.86
2023-03-21T18:48:44.534Z,11.87
2023-03-21T18:51:11.422Z,11.79
2023-03-21T18:53:37.994Z,11.76
2023-03-21T18:56:09.957Z,11.77
2023-03-21T18:58:37.247Z,11.81
2023-03-21T19:01:05.072Z,11.88
2023-03-21T19:03:36.764Z,11.89
2023-03-21T19:06:05.477Z,11.94
2023-03-21T19:08:34.776Z,12.00
2023-03-21T19:11:06.041Z,11.97
2023-03-21T19:13:33.646Z,11.83
2023-03-21T19:16:02.504Z,11.78
2023-03-21T19:18:50.381Z,11.70
2023-03-21T19:21:19.829Z,11.73
2023-03-21T19:26:33.049Z,11.72
2023-03-21T19:28:59.495Z,11.70
2023-03-21T19:31:26.781Z,11.69
2023-03-21T19:33:53.362Z,11.64
2023-03-21T19:36:22.927Z,11.57
2023-03-21T19:38:50.529Z,11.50
2023-03-21T19:41:18.398Z,11.51
2023-03-21T19:43:53.762Z,11.53
2023-03-21T19:46:24.481Z,11.45
2023-03-21T19:48:51.090Z,11.44
2023-03-21T19:51:28.178Z,11.41
2023-03-21T19:53:56.297Z,11.41
2023-03-21T19:56:26.590Z,11.45
2023-03-21T19:58:56.930Z,11.45
2023-03-21T20:01:24.768Z,11.50
2023-03-21T20:03:52.134Z,11.47
2023-03-21T20:06:18.771Z,11.41
2023-03-21T20:11:32.571Z,11.39
2023-03-21T20:13:59.872Z,11.30
2023-03-21T20:16:33.693Z,11.23
2023-03-21T20:19:00.903Z,11.27
2023-03-21T20:21:34.824Z,11.25
2023-03-21T20:24:03.663Z,11.21
2023-03-21T20:26:31.040Z,11.20
2023-03-21T20:29:19.689Z,11.13
2023-03-21T20:31:44.338Z,11.05
2023-03-21T20:34:10.803Z,11.05
2023-03-21T20:36:40.565Z,10.94
2023-03-21T20:39:07.698Z,10.74
2023-03-21T20:41:34.296Z,10.69
2023-03-21T20:46:47.596Z,10.70
2023-03-21T20:49:15.294Z,10.65
2023-03-21T20:54:29.699Z,10.44
2023-03-21T20:56:56.735Z,10.41
2023-03-21T20:59:27.250Z,10.43
2023-03-21T21:01:58.175Z,10.35
2023-03-21T21:04:47.000Z,10.34
2023-03-21T21:07:17.502Z,10.38
2023-03-21T21:09:45.047Z,10.39
2023-03-21T21:12:12.552Z,10.38
2023-03-21T21:14:39.283Z,10.39
2023-03-21T21:17:23.864Z,10.38
2023-03-21T21:19:52.499Z,10.36
2023-03-21T21:22:19.154Z,10.40
2023-03-21T21:24:45.620Z,10.38
2023-03-21T21:27:12.038Z,10.34
2023-03-21T21:29:38.752Z,10.28
2023-03-21T21:32:05.340Z,10.27
2023-03-21T21:34:32.093Z,10.22
2023-03-21T21:36:58.657Z,10.19
2023-03-21T21:39:26.540Z,10.22
2023-03-21T21:41:53.836Z,10.18
2023-03-21T21:44:20.590Z,10.14
2023-03-21T21:46:47.243Z,10.15
2023-03-21T21:49:13.821Z,10.14
2023-03-21T21:51:41.823Z,10.14
2023-03-21T21:54:08.386Z,10.11
2023-03-21T21:56:36.951Z,10.04
2023-03-21T21:59:04.477Z,9.99
2023-03-21T22:01:34.710Z,9.99
2023-03-21T22:04:06.431Z,9.99
2023-03-21T22:06:34.493Z,10.00
2023-03-21T22:09:03.802Z,9.96
2023-03-21T22:11:30.422Z,9.95
2023-03-21T22:13:56.957Z,9.91
2023-03-21T22:16:23.477Z,9.87
2023-03-21T22:18:49.953Z,9.88
2023-03-21T22:21:16.464Z,9.92
2023-03-21T22:23:42.884Z,9.95
2023-03-21T22:26:10.132Z,9.94
2023-03-21T22:28:40.079Z,10.01
2023-03-21T22:31:13.051Z,10.02
2023-03-21T22:33:39.592Z,10.03
2023-03-21T22:36:06.388Z,10.04
2023-03-21T22:38:34.529Z,10.08
2023-03-21T22:41:04.758Z,10.11
2023-03-21T22:43:35.233Z,10.10
2023-03-21T22:46:03.787Z,10.10
2023-03-21T22:48:30.904Z,10.06
2023-03-21T22:50:59.424Z,10.08
2023-03-21T22:53:26.050Z,10.09
2023-03-21T22:55:52.582Z,10.17
2023-03-21T22:58:19.131Z,10.14
2023-03-21T23:00:45.830Z,10.13
2023-03-21T23:03:14.456Z,10.04
2023-03-21T23:05:41.475Z,10.09
2023-03-21T23:08:08.336Z,10.13
2023-03-21T23:10:38.126Z,10.07
2023-03-21T23:13:04.784Z,10.10
2023-03-21T23:15:31.248Z,10.13
2023-03-21T23:17:57.684Z,10.05
2023-03-21T23:20:24.105Z,10.08
2023-03-21T23:22:50.549Z,10.02
2023-03-21T23:25:17.017Z,9.94
2023-03-21T23:27:43.460Z,9.91
2023-03-21T23:30:10.207Z,9.94
2023-03-21T23:32:36.814Z,10.01
2023-03-21T23:35:03.773Z,9.98
2023-03-21T23:37:30.200Z,9.97
2023-03-21T23:39:56.621Z,9.96
2023-03-21T23:42:25.056Z,10.03
2023-03-21T23:44:51.502Z,9.99
2023-03-21T23:47:17.944Z,9.92
2023-03-21T23:49:49.870Z,9.90
2023-03-21T23:52:16.323Z,9.84
2023-03-21T23:54:42.854Z,9.85
2023-03-21T23:57:09.324Z,9.83
2023-03-21T23:59:35.801Z,9.81
